NY Terminal Aviation Weather Discussion (AFD)
COLD FRONT HAS PASSED THROUGH EASTERN LI AND SE CT.

BEHIND THE FRONT...WINDS 330-350 AT AROUND 10 KT...WITH GUSTS 15
TO 18 KT MID MORNING INTO THE EARLY AFT. FLOW BACKS A BIT IN THE
AFTERNOON DUE TO A WEAK TROF...BUT MAINLY RIGHT OF 310 MAGNETIC.

*************************************************************************************
KJFK Terminal Weather:

FTNA35 KJFK 280836 RRC
KJFK 280832Z 2809/2912 35010KT P6SM FEW050
     FM281300 34014G18KT P6SM SKC
     FM281800 32013KT P6SM FEW040
     FM290300 34011KT P6SM SKC
KJFK FCSTER COMMENTS: HIGH CONFIDENCE FORECAST.

*************************************************************************************
KLGA Terminal Weather:
FTUS31 KLGA 280833 AAA
KLGA 280832Z 2809/2906 35010KT P6SM FEW050
     FM281300 34012G18KT P6SM SKC
     FM281800 33012KT P6SM FEW040
     FM290300 34011KT P6SM SKC
KLGA FCSTER COMMENTS: HIGH CONFIDENCE FORECAST.

*************************************************************************************
KEWR Terminal Weather:
FTUS31 KEWR 280833 AAA
KEWR 280832Z 2809/2912 34010KT P6SM SKC
     FM281300 33013G18KT P6SM SKC
     FM281800 32013KT P6SM FEW040
     FM290300 34011KT P6SM SKC
KEWR FCSTER COMMENTS: HIGH CONFIDENCE FORECAST.

THE AFTERNOON KEWR HAZE POTENTIAL FORECAST IS GREEN...WHICH IMPLIES 
SLANT RANGE VISIBILITY 7SM OR GREATER OUTSIDE OF CLOUD.

*************************************************************************************
KTEB Terminal Weather:
FTUS31 KTEB 280833 AAA
KTEB 280832Z 2809/2906 35006KT P6SM SKC
     FM281300 33011G16KT P6SM SKC
     FM282100 32013KT P6SM FEW050
     FM290000 34007KT P6SM SKC
KTEB FCSTER COMMENTS: HIGH CONFIDENCE FORECAST.

*************************************************************************************
KHPN Terminal Weather:
FTUS80 KHPN 280833 AAA
KHPN 280832Z 2809/2906 33008KT P6SM SKC
     FM281300 32012G17KT P6SM SKC
     FM282100 32012KT P6SM FEW050
     FM290000 33008KT P6SM SKC AMD NOT SKED
KHPN FCSTER COMMENTS: HIGH CONFIDENCE FORECAST.

*************************************************************************************
KISP Terminal Weather:
FTUS80 KISP 280833 AAB
KISP 280832Z 2809/2906 35010KT P6SM FEW050
     FM281300 33012G18KT P6SM SKC
     FM282100 32013KT P6SM FEW050
     FM290300 34008KT P6SM SKC
KISP FCSTER COMMENTS: HIGH CONFIDENCE FORECAST.

*************************************************************************************
5 Day General Outlook:

.OUTLOOK FOR 06Z FRI THROUGH MON...
.THU NIGHT-SAT...VFR.
.SUN-MON...VFR. A CHANCE OF MVFR CONDITIONS IN SHOWERS AND 
THUNDERSTORMS FROM SUN AFTERNOON THROUGH MON.


Click the Print Icon print icon below to print the briefing sheet